Time;durP1;ratioP1;P1;durP2;ratioP2;P2;SDS_P1;SDS_P2;PMS_P1;PMS_P2;Temp;Humidity;BMP_temperature;BMP_pressure;BME280_temperature;BME280_humidity;BME280_pressure;Samples;Min_cycle;Max_cycle;Signal;HPM_P1;HPM_P2
2022/06/21 00:02:21;;;;;;;6.25;5.07;;;;;;;;;;5071656;28;20028;-72
2022/06/21 00:04:47;;;;;;;12.55;5.68;;;;;;;;;;5076026;28;20032;-71
2022/06/21 00:07:18;;;;;;;9.40;5.05;;;;;;;;;;5073360;28;20107;-72
2022/06/21 00:09:44;;;;;;;11.70;5.15;;;;;;;;;;5071870;28;20039;-71
2022/06/21 00:12:12;;;;;;;11.15;5.40;;;;;;;;;;5075964;28;20031;-71
2022/06/21 00:14:39;;;;;;;11.50;5.97;;;;;;;;;;5070460;28;20048;-71
2022/06/21 00:17:05;;;;;;;7.70;5.35;;;;;;;;;;5070696;28;20029;-72
2022/06/21 00:19:32;;;;;;;13.35;5.30;;;;;;;;;;5071281;28;20174;-72
2022/06/21 00:21:58;;;;;;;8.60;5.63;;;;;;;;;;5071666;28;20051;-72
2022/06/21 00:24:24;;;;;;;8.52;5.43;;;;;;;;;;5071835;28;20032;-71
2022/06/21 00:26:50;;;;;;;14.48;5.10;;;;;;;;;;5072341;28;20032;-72
2022/06/21 00:29:16;;;;;;;8.07;5.28;;;;;;;;;;5074406;28;20035;-72
2022/06/21 00:31:45;;;;;;;10.60;4.82;;;;;;;;;;5071250;28;20074;-71
2022/06/21 00:34:16;;;;;;;13.52;5.88;;;;;;;;;;5077200;28;20111;-71
2022/06/21 00:36:42;;;;;;;8.80;5.38;;;;;;;;;;5072206;28;20181;-70
2022/06/21 00:39:12;;;;;;;13.88;5.70;;;;;;;;;;5074989;28;20016;-71
2022/06/21 00:41:53;;;;;;;8.70;5.10;;;;;;;;;;5066025;28;20028;-71
2022/06/21 00:44:32;;;;;;;12.13;5.10;;;;;;;;;;5070816;28;20024;-72
2022/06/21 00:47:03;;;;;;;7.75;5.30;;;;;;;;;;5072663;28;20032;-71
2022/06/21 00:49:32;;;;;;;10.65;5.40;;;;;;;;;;5071073;28;20044;-71
2022/06/21 00:52:05;;;;;;;8.70;5.13;;;;;;;;;;5070849;28;20025;-70
2022/06/21 00:54:34;;;;;;;9.82;5.28;;;;;;;;;;5071248;28;20051;-72
2022/06/21 00:57:05;;;;;;;10.05;5.28;;;;;;;;;;5070389;28;20478;-71
2022/06/21 00:59:33;;;;;;;12.18;5.57;;;;;;;;;;5072282;28;20098;-71
2022/06/21 01:02:17;;;;;;;10.98;5.88;;;;;;;;;;5070616;28;20536;-71
2022/06/21 01:04:45;;;;;;;14.38;5.80;;;;;;;;;;5071376;28;20474;-71
2022/06/21 01:07:12;;;;;;;12.95;5.03;;;;;;;;;;5071611;28;20041;-70
2022/06/21 01:09:51;;;;;;;14.20;5.65;;;;;;;;;;5068694;28;20792;-70
2022/06/21 01:12:17;;;;;;;7.90;5.53;;;;;;;;;;5069496;28;20385;-71
2022/06/21 01:14:47;;;;;;;11.27;5.03;;;;;;;;;;5070953;28;20043;-71
2022/06/21 01:17:13;;;;;;;9.30;5.70;;;;;;;;;;5076606;28;20024;-72
2022/06/21 01:19:42;;;;;;;8.02;5.10;;;;;;;;;;5074687;28;20521;-71
2022/06/21 01:22:32;;;;;;;8.98;5.18;;;;;;;;;;5074756;28;20036;-71
2022/06/21 01:25:16;;;;;;;10.10;5.65;;;;;;;;;;5050774;28;20467;-72
2022/06/21 01:27:43;;;;;;;9.25;5.75;;;;;;;;;;5051077;28;20541;-71
2022/06/21 01:30:10;;;;;;;9.57;5.88;;;;;;;;;;5052708;28;20045;-70
2022/06/21 01:32:36;;;;;;;8.30;5.82;;;;;;;;;;5051274;28;20108;-71
2022/06/21 01:35:08;;;;;;;10.70;5.95;;;;;;;;;;5051974;28;20104;-72
2022/06/21 01:37:34;;;;;;;10.05;5.85;;;;;;;;;;5050075;28;20037;-71
2022/06/21 01:40:19;;;;;;;11.95;6.20;;;;;;;;;;5050768;28;20490;-71
2022/06/21 01:42:47;;;;;;;13.20;5.50;;;;;;;;;;5051637;28;20043;-71
2022/06/21 01:45:19;;;;;;;14.23;6.00;;;;;;;;;;5050929;28;20031;-72
2022/06/21 01:47:59;;;;;;;9.52;5.60;;;;;;;;;;5050117;28;20028;-71
2022/06/21 01:50:25;;;;;;;8.63;5.35;;;;;;;;;;5050654;28;20051;-71
2022/06/21 01:52:52;;;;;;;16.90;5.70;;;;;;;;;;5051642;28;20043;-71
2022/06/21 01:55:48;;;;;;;10.00;5.43;;;;;;;;;;5051676;28;20363;-71
2022/06/21 01:58:17;;;;;;;9.48;5.47;;;;;;;;;;5031934;28;20037;-72
2022/06/21 02:00:47;;;;;;;10.55;5.65;;;;;;;;;;5030839;28;20025;-71
2022/06/21 02:03:15;;;;;;;10.18;5.82;;;;;;;;;;5030892;28;20064;-70
2022/06/21 02:05:44;;;;;;;8.82;5.80;;;;;;;;;;5031244;28;20018;-71
2022/06/21 02:08:15;;;;;;;10.68;5.20;;;;;;;;;;5032191;28;20549;-72
2022/06/21 02:10:42;;;;;;;12.32;5.78;;;;;;;;;;5032563;28;20042;-71
2022/06/21 02:13:13;;;;;;;7.45;5.32;;;;;;;;;;5031857;28;20021;-72
2022/06/21 02:15:49;;;;;;;10.77;5.75;;;;;;;;;;5031431;28;20088;-70
2022/06/21 02:18:16;;;;;;;8.45;5.40;;;;;;;;;;5031885;28;20053;-71
2022/06/21 02:20:47;;;;;;;11.55;5.78;;;;;;;;;;5029754;28;20056;-71
2022/06/21 02:23:14;;;;;;;11.98;5.57;;;;;;;;;;5030557;28;20044;-72
2022/06/21 02:25:41;;;;;;;13.85;5.55;;;;;;;;;;5031046;28;20087;-71
2022/06/21 02:28:09;;;;;;;10.82;5.63;;;;;;;;;;5031169;28;20439;-72
2022/06/21 02:30:36;;;;;;;11.02;5.45;;;;;;;;;;5031273;28;20121;-72
2022/06/21 02:33:04;;;;;;;12.30;5.70;;;;;;;;;;5039195;28;20018;-70
2022/06/21 02:35:36;;;;;;;10.73;5.57;;;;;;;;;;5067350;28;20048;-71
2022/06/21 02:38:04;;;;;;;13.43;5.82;;;;;;;;;;5073182;28;20096;-72
2022/06/21 02:40:35;;;;;;;13.95;5.50;;;;;;;;;;5075005;28;20032;-70
2022/06/21 02:43:03;;;;;;;10.23;5.40;;;;;;;;;;5071720;28;20072;-71
2022/06/21 02:45:34;;;;;;;11.35;5.47;;;;;;;;;;5073495;28;20122;-71
2022/06/21 02:48:03;;;;;;;8.68;5.32;;;;;;;;;;5071225;28;20474;-71
2022/06/21 02:50:34;;;;;;;8.13;5.43;;;;;;;;;;5073067;28;20336;-70
2022/06/21 02:53:02;;;;;;;10.65;5.80;;;;;;;;;;5071293;28;20032;-71
2022/06/21 02:55:34;;;;;;;9.85;5.70;;;;;;;;;;5072797;28;20032;-71
2022/06/21 02:58:05;;;;;;;12.60;5.50;;;;;;;;;;5070329;28;20027;-71
2022/06/21 03:00:31;;;;;;;10.50;5.30;;;;;;;;;;5069934;28;20328;-72
2022/06/21 03:02:59;;;;;;;13.63;6.10;;;;;;;;;;5072629;28;20035;-70
2022/06/21 03:05:27;;;;;;;11.05;5.50;;;;;;;;;;5075767;28;20025;-71
2022/06/21 03:07:55;;;;;;;10.32;5.47;;;;;;;;;;5072438;28;20516;-70
2022/06/21 03:10:25;;;;;;;10.55;6.00;;;;;;;;;;5072348;28;20074;-71
2022/06/21 03:12:55;;;;;;;12.20;5.93;;;;;;;;;;5072909;28;20082;-72
2022/06/21 03:15:21;;;;;;;12.43;6.05;;;;;;;;;;5068694;28;20024;-71
2022/06/21 03:17:55;;;;;;;13.20;6.70;;;;;;;;;;5071363;28;20024;-70
2022/06/21 03:20:21;;;;;;;14.52;6.15;;;;;;;;;;5075844;28;20135;-72
2022/06/21 03:22:49;;;;;;;11.70;6.22;;;;;;;;;;5072230;28;20032;-72
2022/06/21 03:25:20;;;;;;;12.52;6.20;;;;;;;;;;5071585;28;20027;-71
2022/06/21 03:27:54;;;;;;;9.20;6.05;;;;;;;;;;5072395;28;20511;-71
2022/06/21 03:30:22;;;;;;;11.10;5.90;;;;;;;;;;5072152;28;20395;-71
2022/06/21 03:32:50;;;;;;;8.65;6.07;;;;;;;;;;5071428;28;20029;-71
2022/06/21 03:35:16;;;;;;;12.55;6.30;;;;;;;;;;5071199;28;20553;-71
2022/06/21 03:37:43;;;;;;;10.23;5.80;;;;;;;;;;5075448;28;20413;-71
2022/06/21 03:42:57;;;;;;;9.88;6.22;;;;;;;;;;5072221;28;20047;-71
2022/06/21 03:45:26;;;;;;;13.05;6.28;;;;;;;;;;5070996;28;20111;-72
2022/06/21 03:47:57;;;;;;;11.60;5.75;;;;;;;;;;5071737;28;20020;-71
2022/06/21 03:50:35;;;;;;;11.15;6.15;;;;;;;;;;5071534;28;20106;-71
2022/06/21 03:53:04;;;;;;;9.88;5.75;;;;;;;;;;5069832;28;20027;-71
2022/06/21 03:55:51;;;;;;;9.73;5.72;;;;;;;;;;5077171;28;20024;-71
2022/06/21 03:58:23;;;;;;;12.70;6.25;;;;;;;;;;5048140;28;20128;-72
2022/06/21 04:00:52;;;;;;;12.70;5.72;;;;;;;;;;5048828;28;20179;-72
2022/06/21 04:03:24;;;;;;;14.90;6.47;;;;;;;;;;5049053;28;20047;-72
2022/06/21 04:06:14;;;;;;;13.52;6.57;;;;;;;;;;5046887;28;20021;-71
2022/06/21 04:08:44;;;;;;;13.07;6.18;;;;;;;;;;5037674;28;20048;-72
2022/06/21 04:11:19;;;;;;;10.35;6.50;;;;;;;;;;5048573;28;20055;-71
2022/06/21 04:13:48;;;;;;;12.27;6.30;;;;;;;;;;5045518;28;20036;-72
2022/06/21 04:16:22;;;;;;;9.18;5.90;;;;;;;;;;5048914;28;20163;-70
2022/06/21 04:18:48;;;;;;;13.13;6.53;;;;;;;;;;5041077;28;20513;-71
2022/06/21 04:21:23;;;;;;;18.60;6.32;;;;;;;;;;5043453;28;20124;-72
2022/06/21 04:23:52;;;;;;;11.60;5.38;;;;;;;;;;5046746;28;20048;-74
2022/06/21 04:26:20;;;;;;;12.48;6.10;;;;;;;;;;5048085;28;20064;-73
2022/06/21 04:28:56;;;;;;;12.68;5.68;;;;;;;;;;5048800;28;20049;-73
2022/06/21 04:31:26;;;;;;;11.98;6.30;;;;;;;;;;5049266;28;20040;-73
2022/06/21 04:33:57;;;;;;;11.02;6.07;;;;;;;;;;5043608;28;20055;-75
2022/06/21 04:36:23;;;;;;;10.15;6.28;;;;;;;;;;5072162;28;20504;-75
2022/06/21 04:39:08;;;;;;;13.40;6.25;;;;;;;;;;5076926;28;20486;-76
2022/06/21 04:41:52;;;;;;;11.15;6.40;;;;;;;;;;5078635;28;20516;-72
2022/06/21 04:44:18;;;;;;;11.00;6.15;;;;;;;;;;5080679;28;20024;-72
2022/06/21 04:46:55;;;;;;;13.20;6.13;;;;;;;;;;5074293;28;20368;-68
2022/06/21 04:49:27;;;;;;;13.02;6.10;;;;;;;;;;5082121;28;20093;-71
2022/06/21 04:51:58;;;;;;;11.15;7.32;;;;;;;;;;5077523;28;20107;-70
2022/06/21 04:54:25;;;;;;;12.23;6.97;;;;;;;;;;5075974;28;20032;-72
2022/06/21 04:57:00;;;;;;;16.60;7.93;;;;;;;;;;5090134;28;20052;-73
2022/06/21 04:59:29;;;;;;;8.25;6.03;;;;;;;;;;5088244;28;20020;-74
2022/06/21 05:01:55;;;;;;;11.82;6.30;;;;;;;;;;5081002;28;20027;-76
2022/06/21 05:04:27;;;;;;;16.23;6.40;;;;;;;;;;5077356;28;20037;-76
2022/06/21 05:06:56;;;;;;;11.75;6.75;;;;;;;;;;5085927;28;20046;-74
2022/06/21 05:09:24;;;;;;;11.15;6.30;;;;;;;;;;5075295;28;20024;-75
2022/06/21 05:11:56;;;;;;;18.42;6.50;;;;;;;;;;5088017;28;20039;-74
2022/06/21 05:14:24;;;;;;;16.38;6.05;;;;;;;;;;5080226;28;20058;-72
2022/06/21 05:16:50;;;;;;;12.27;5.68;;;;;;;;;;5087930;28;20032;-72
2022/06/21 05:19:28;;;;;;;8.02;5.25;;;;;;;;;;5080150;28;20102;-74
2022/06/21 05:22:15;;;;;;;10.65;5.50;;;;;;;;;;5074434;28;20032;-74
2022/06/21 05:24:41;;;;;;;14.38;5.30;;;;;;;;;;5079858;28;20131;-78
2022/06/21 05:27:13;;;;;;;9.50;5.57;;;;;;;;;;5075240;28;20017;-81
2022/06/21 05:29:42;;;;;;;12.45;5.55;;;;;;;;;;5085010;28;20107;-83
2022/06/21 05:32:14;;;;;;;9.73;5.50;;;;;;;;;;5074692;28;20032;-75
2022/06/21 05:34:44;;;;;;;10.95;5.10;;;;;;;;;;5084132;28;20031;-77
2022/06/21 05:37:18;;;;;;;10.30;5.68;;;;;;;;;;5084469;28;20119;-79
2022/06/21 05:39:47;;;;;;;10.27;5.60;;;;;;;;;;5075594;28;20032;-85
2022/06/21 05:42:14;;;;;;;12.20;5.65;;;;;;;;;;5087250;28;20516;-76
2022/06/21 05:44:47;;;;;;;10.50;5.45;;;;;;;;;;5079840;28;20024;-72
2022/06/21 05:47:19;;;;;;;10.23;5.07;;;;;;;;;;5078634;28;20021;-73
2022/06/21 05:49:45;;;;;;;12.38;5.78;;;;;;;;;;5076381;28;20129;-72
2022/06/21 05:52:14;;;;;;;23.98;6.35;;;;;;;;;;5076861;28;20028;-74
2022/06/21 05:54:44;;;;;;;10.27;5.60;;;;;;;;;;5075437;28;20112;-84
2022/06/21 05:57:12;;;;;;;11.05;5.40;;;;;;;;;;5081456;28;20033;-88
2022/06/21 05:59:38;;;;;;;22.73;5.70;;;;;;;;;;5073509;28;20063;-79
2022/06/21 06:02:12;;;;;;;11.82;5.55;;;;;;;;;;5080086;28;20036;-81
2022/06/21 06:04:38;;;;;;;10.48;4.95;;;;;;;;;;5075040;28;20077;-72
2022/06/21 06:07:05;;;;;;;12.85;5.38;;;;;;;;;;5075226;28;20390;-73
2022/06/21 06:09:34;;;;;;;15.25;6.20;;;;;;;;;;5079131;28;20036;-74
2022/06/21 06:12:05;;;;;;;10.32;5.40;;;;;;;;;;5074165;28;20032;-76
2022/06/21 06:14:38;;;;;;;10.43;4.95;;;;;;;;;;5071115;28;20314;-72
2022/06/21 06:17:09;;;;;;;13.15;5.28;;;;;;;;;;5078864;28;20081;-74
2022/06/21 06:19:39;;;;;;;12.52;4.95;;;;;;;;;;5074921;28;20401;-82
2022/06/21 06:22:05;;;;;;;11.52;4.93;;;;;;;;;;5079761;28;20456;-71
2022/06/21 06:24:35;;;;;;;8.98;4.93;;;;;;;;;;5082197;28;20028;-76
2022/06/21 06:27:03;;;;;;;11.85;5.00;;;;;;;;;;5078633;28;20021;-83
2022/06/21 06:29:41;;;;;;;11.82;4.70;;;;;;;;;;5072557;28;20043;-79
2022/06/21 06:32:13;;;;;;;8.77;4.80;;;;;;;;;;5076697;28;20509;-81
2022/06/21 06:34:43;;;;;;;11.38;5.03;;;;;;;;;;5078430;28;20035;-77
2022/06/21 06:37:13;;;;;;;7.85;5.07;;;;;;;;;;5071929;28;20184;-74
2022/06/21 06:39:39;;;;;;;8.23;5.03;;;;;;;;;;5069856;28;20032;-71
2022/06/21 06:42:20;;;;;;;9.95;5.00;;;;;;;;;;5071855;28;20032;-72
2022/06/21 06:44:49;;;;;;;10.00;4.93;;;;;;;;;;5072750;28;20024;-74
2022/06/21 06:47:16;;;;;;;12.32;4.72;;;;;;;;;;5073365;28;20107;-72
2022/06/21 06:49:45;;;;;;;20.35;5.15;;;;;;;;;;5085332;28;20048;-72
2022/06/21 06:52:29;;;;;;;8.93;4.85;;;;;;;;;;5072452;28;20028;-82
2022/06/21 06:55:14;;;;;;;10.07;4.85;;;;;;;;;;5069338;28;20028;-77
2022/06/21 06:57:44;;;;;;;7.40;4.80;;;;;;;;;;5071468;28;20386;-73
2022/06/21 07:00:15;;;;;;;13.60;5.18;;;;;;;;;;5081348;28;20108;-72
2022/06/21 07:02:45;;;;;;;10.30;4.88;;;;;;;;;;5077971;28;20028;-72
2022/06/21 07:05:19;;;;;;;14.20;4.97;;;;;;;;;;5078778;28;20031;-72
2022/06/21 07:07:58;;;;;;;32.67;6.55;;;;;;;;;;5078012;28;20059;-74
2022/06/21 07:10:25;;;;;;;20.40;5.93;;;;;;;;;;5073045;28;20025;-74
2022/06/21 07:12:52;;;;;;;14.88;4.78;;;;;;;;;;5079525;28;20082;-76
2022/06/21 07:15:20;;;;;;;15.98;5.70;;;;;;;;;;5074276;28;20048;-76
2022/06/21 07:17:50;;;;;;;7.90;4.85;;;;;;;;;;5071949;28;20048;-72
2022/06/21 07:20:20;;;;;;;8.55;4.50;;;;;;;;;;5072054;28;20041;-75
2022/06/21 07:22:46;;;;;;;20.50;5.40;;;;;;;;;;5074466;28;20047;-79
2022/06/21 07:25:19;;;;;;;9.38;5.18;;;;;;;;;;5077589;28;20532;-81
2022/06/21 07:27:47;;;;;;;19.08;5.15;;;;;;;;;;5075105;28;20061;-81
2022/06/21 07:30:16;;;;;;;8.48;4.88;;;;;;;;;;5075589;28;20033;-73
2022/06/21 07:32:51;;;;;;;13.68;5.00;;;;;;;;;;5073394;28;20082;-76
2022/06/21 07:35:24;;;;;;;13.73;4.65;;;;;;;;;;5072623;28;20058;-75
2022/06/21 07:37:59;;;;;;;7.72;4.53;;;;;;;;;;5071439;28;20034;-79
2022/06/21 07:40:34;;;;;;;11.65;4.40;;;;;;;;;;5071948;28;20056;-82
2022/06/21 07:43:00;;;;;;;5.30;4.45;;;;;;;;;;5074332;28;20033;-75
2022/06/21 07:45:31;;;;;;;9.93;4.50;;;;;;;;;;5073187;28;20036;-74
2022/06/21 07:48:03;;;;;;;12.30;4.78;;;;;;;;;;5070548;28;20051;-77
2022/06/21 07:50:50;;;;;;;12.68;5.38;;;;;;;;;;5069780;28;20056;-78
2022/06/21 07:53:16;;;;;;;8.82;4.53;;;;;;;;;;5068928;28;20476;-77
2022/06/21 07:55:46;;;;;;;8.10;4.38;;;;;;;;;;5070989;28;20470;-78
2022/06/21 07:58:18;;;;;;;23.25;5.20;;;;;;;;;;5052786;28;20059;-74
2022/06/21 08:09:08;;;;;;;8.75;4.13;;;;;;;;;;5078564;28;20137;-76
2022/06/21 08:11:37;;;;;;;8.30;4.22;;;;;;;;;;5076444;28;20070;-82
2022/06/21 08:14:03;;;;;;;8.05;4.00;;;;;;;;;;5068823;28;20053;-72
2022/06/21 08:16:35;;;;;;;9.38;4.20;;;;;;;;;;5078624;28;20032;-77
2022/06/21 08:19:04;;;;;;;8.68;4.20;;;;;;;;;;5066461;28;20033;-72
2022/06/21 08:21:35;;;;;;;9.70;4.50;;;;;;;;;;5057256;28;20119;-79
2022/06/21 08:24:04;;;;;;;10.73;4.45;;;;;;;;;;5089247;28;20016;-76
2022/06/21 08:26:38;;;;;;;13.55;4.55;;;;;;;;;;5086484;28;20099;-82
2022/06/21 08:29:36;;;;;;;14.45;4.85;;;;;;;;;;5075640;28;20044;-76
2022/06/21 08:32:08;;;;;;;12.73;4.85;;;;;;;;;;5003018;28;20469;-78
2022/06/21 08:34:40;;;;;;;13.00;4.95;;;;;;;;;;5010561;28;20037;-79
2022/06/21 08:37:12;;;;;;;10.38;4.47;;;;;;;;;;5007761;28;20105;-77
2022/06/21 08:39:44;;;;;;;13.85;4.82;;;;;;;;;;5017988;28;20480;-78
2022/06/21 08:42:16;;;;;;;14.93;5.00;;;;;;;;;;5008777;28;20088;-80
2022/06/21 08:44:42;;;;;;;12.13;4.40;;;;;;;;;;5014463;28;20029;-75
2022/06/21 08:47:08;;;;;;;9.63;4.55;;;;;;;;;;5004327;28;20276;-76
2022/06/21 08:49:34;;;;;;;10.60;4.55;;;;;;;;;;5016978;28;20623;-79
2022/06/21 08:52:00;;;;;;;7.95;4.40;;;;;;;;;;5009296;28;20041;-75
2022/06/21 08:54:47;;;;;;;7.85;4.07;;;;;;;;;;5011397;28;20038;-79
2022/06/21 08:57:19;;;;;;;10.07;4.43;;;;;;;;;;5012921;28;20076;-78
2022/06/21 08:59:56;;;;;;;13.15;4.80;;;;;;;;;;5005442;28;20496;-76
2022/06/21 09:02:22;;;;;;;11.90;4.78;;;;;;;;;;5008949;28;20072;-76
2022/06/21 09:04:58;;;;;;;10.38;4.60;;;;;;;;;;5009855;28;20144;-80
2022/06/21 09:07:24;;;;;;;16.67;4.03;;;;;;;;;;5037621;28;20070;-78
2022/06/21 09:10:02;;;;;;;13.38;4.57;;;;;;;;;;5075191;28;20036;-79
2022/06/21 09:12:44;;;;;;;9.27;4.70;;;;;;;;;;5081178;28;20095;-76
2022/06/21 09:15:10;;;;;;;10.88;4.53;;;;;;;;;;5078153;28;20033;-75
2022/06/21 09:17:44;;;;;;;9.27;4.20;;;;;;;;;;5073479;28;20023;-79
2022/06/21 09:20:10;;;;;;;8.40;4.40;;;;;;;;;;5082493;28;20071;-72
2022/06/21 09:22:40;;;;;;;14.52;4.57;;;;;;;;;;5075835;28;20024;-72
2022/06/21 09:25:17;;;;;;;15.00;4.57;;;;;;;;;;5074894;28;20050;-72
2022/06/21 09:27:51;;;;;;;13.13;5.22;;;;;;;;;;5074389;28;20032;-70
2022/06/21 09:30:17;;;;;;;14.90;5.40;;;;;;;;;;5072692;28;20079;-74
2022/06/21 09:32:57;;;;;;;12.98;4.68;;;;;;;;;;5074395;28;20032;-71
2022/06/21 09:35:25;;;;;;;9.77;4.72;;;;;;;;;;5074075;28;20032;-71
2022/06/21 09:37:59;;;;;;;12.25;5.20;;;;;;;;;;5072362;28;20670;-73
2022/06/21 09:40:41;;;;;;;12.00;5.18;;;;;;;;;;5072900;28;20462;-71
2022/06/21 09:43:15;;;;;;;12.10;4.68;;;;;;;;;;5073182;28;20024;-73
2022/06/21 09:45:41;;;;;;;8.88;4.57;;;;;;;;;;5070648;28;20402;-72
2022/06/21 09:48:26;;;;;;;16.25;4.72;;;;;;;;;;5074912;28;20136;-74
2022/06/21 09:51:24;;;;;;;12.65;5.40;;;;;;;;;;5081578;28;20085;-73
2022/06/21 09:53:54;;;;;;;14.35;5.22;;;;;;;;;;5010052;28;20041;-75
2022/06/21 09:56:31;;;;;;;14.13;4.55;;;;;;;;;;4994357;28;20034;-85
2022/06/21 09:59:00;;;;;;;10.10;4.47;;;;;;;;;;5008302;28;20053;-80
2022/06/21 10:01:35;;;;;;;9.73;4.70;;;;;;;;;;5010577;28;20115;-75
2022/06/21 10:04:01;;;;;;;8.43;5.30;;;;;;;;;;5010389;28;20045;-77
2022/06/21 10:06:37;;;;;;;11.77;4.82;;;;;;;;;;5010314;28;20038;-73
2022/06/21 10:09:03;;;;;;;12.00;4.97;;;;;;;;;;5010262;28;20441;-74
2022/06/21 10:11:41;;;;;;;10.85;5.07;;;;;;;;;;5011155;28;20487;-73
2022/06/21 10:14:10;;;;;;;11.15;4.93;;;;;;;;;;5010686;28;20115;-72
2022/06/21 10:16:36;;;;;;;13.25;5.50;;;;;;;;;;5007537;28;20578;-72
2022/06/21 10:19:02;;;;;;;16.08;5.43;;;;;;;;;;5010015;28;20034;-71
2022/06/21 10:21:28;;;;;;;16.00;5.22;;;;;;;;;;4991974;28;20046;-72
2022/06/21 10:23:54;;;;;;;12.25;5.38;;;;;;;;;;5011290;28;20036;-71
2022/06/21 10:26:23;;;;;;;9.55;5.30;;;;;;;;;;5009385;28;20038;-73
2022/06/21 10:29:08;;;;;;;11.13;5.50;;;;;;;;;;5021431;28;20521;-78
2022/06/21 10:31:39;;;;;;;17.20;5.40;;;;;;;;;;5075950;28;20029;-75
2022/06/21 10:34:19;;;;;;;13.52;5.20;;;;;;;;;;5086047;28;20020;-76
2022/06/21 10:37:03;;;;;;;12.77;5.53;;;;;;;;;;5074671;28;20143;-77
2022/06/21 10:39:48;;;;;;;16.70;5.13;;;;;;;;;;5073650;28;20089;-75
2022/06/21 10:45:17;;;;;;;17.75;4.80;;;;;;;;;;5074209;28;20073;-78
2022/06/21 10:47:46;;;;;;;14.90;4.63;;;;;;;;;;5073809;28;20028;-75
2022/06/21 10:50:31;;;;;;;15.30;5.25;;;;;;;;;;5071552;28;20045;-76
2022/06/21 10:53:15;;;;;;;15.45;4.72;;;;;;;;;;5077007;28;20028;-75
2022/06/21 10:55:51;;;;;;;9.45;4.70;;;;;;;;;;5068435;28;20027;-75
2022/06/21 10:58:23;;;;;;;7.78;4.72;;;;;;;;;;5075683;28;20028;-75
2022/06/21 11:01:17;;;;;;;6.88;4.45;;;;;;;;;;5078588;28;20028;-78
2022/06/21 11:03:49;;;;;;;10.80;4.78;;;;;;;;;;5076844;28;20032;-73
2022/06/21 11:06:30;;;;;;;9.75;5.28;;;;;;;;;;5075439;28;20099;-77
2022/06/21 11:09:24;;;;;;;11.10;5.03;;;;;;;;;;5071926;28;20027;-74
2022/06/21 11:11:56;;;;;;;9.80;5.30;;;;;;;;;;5029418;28;20060;-77
2022/06/21 11:14:41;;;;;;;20.15;8.82;;;;;;;;;;5028491;28;20034;-73
2022/06/21 11:17:19;;;;;;;9.52;5.15;;;;;;;;;;5024427;28;20037;-78
2022/06/21 11:19:51;;;;;;;19.05;5.32;;;;;;;;;;5027590;28;20069;-76
2022/06/21 11:22:24;;;;;;;8.00;5.05;;;;;;;;;;5030812;28;20030;-81
2022/06/21 11:24:50;;;;;;;12.50;5.18;;;;;;;;;;5028742;28;20021;-77
2022/06/21 11:27:34;;;;;;;14.35;5.50;;;;;;;;;;5022277;28;20029;-77
2022/06/21 11:30:09;;;;;;;10.82;5.40;;;;;;;;;;5025688;28;20121;-79
2022/06/21 11:32:53;;;;;;;9.43;5.03;;;;;;;;;;5030444;28;20056;-77
2022/06/21 11:35:30;;;;;;;8.27;4.80;;;;;;;;;;5011847;28;20038;-73
2022/06/21 11:38:15;;;;;;;11.20;5.03;;;;;;;;;;5026209;28;20029;-75
2022/06/21 11:40:58;;;;;;;8.90;5.43;;;;;;;;;;5024595;28;20048;-79
2022/06/21 11:43:50;;;;;;;14.38;5.90;;;;;;;;;;5029189;28;20056;-77
2022/06/21 11:46:26;;;;;;;8.70;4.70;;;;;;;;;;5019379;28;20139;-77
2022/06/21 11:48:55;;;;;;;12.00;5.10;;;;;;;;;;5046164;28;20036;-76
2022/06/21 11:51:40;;;;;;;8.68;4.63;;;;;;;;;;5077443;28;20036;-76
2022/06/21 11:54:20;;;;;;;7.18;4.60;;;;;;;;;;5054523;28;20048;-74
2022/06/21 11:56:46;;;;;;;11.23;4.78;;;;;;;;;;5078985;28;20027;-76
2022/06/21 11:59:12;;;;;;;11.18;4.90;;;;;;;;;;5072927;28;20096;-78
2022/06/21 12:01:58;;;;;;;13.60;4.72;;;;;;;;;;5068567;28;20546;-76
2022/06/21 12:04:43;;;;;;;9.27;4.63;;;;;;;;;;5061664;28;20041;-77
2022/06/21 12:07:23;;;;;;;10.15;4.70;;;;;;;;;;5079199;28;20052;-78
2022/06/21 12:09:57;;;;;;;21.30;6.68;;;;;;;;;;5072191;28;20033;-78
2022/06/21 12:12:42;;;;;;;9.82;4.60;;;;;;;;;;5068059;28;20028;-84
2022/06/21 12:15:17;;;;;;;9.18;4.68;;;;;;;;;;5065848;28;20032;-77
2022/06/21 12:17:54;;;;;;;13.43;5.07;;;;;;;;;;5061433;28;20036;-81
2022/06/21 12:20:24;;;;;;;9.35;4.90;;;;;;;;;;5060119;28;20093;-84
2022/06/21 12:22:56;;;;;;;12.65;5.13;;;;;;;;;;5070450;28;20052;-80
2022/06/21 12:25:22;;;;;;;15.73;5.20;;;;;;;;;;5078062;28;20027;-80
2022/06/21 12:27:48;;;;;;;14.45;5.22;;;;;;;;;;5071007;28;20028;-81
2022/06/21 12:30:15;;;;;;;11.65;4.80;;;;;;;;;;5069704;28;20043;-77
2022/06/21 12:32:41;;;;;;;9.77;5.03;;;;;;;;;;5070268;28;20439;-84
2022/06/21 12:35:11;;;;;;;8.48;4.70;;;;;;;;;;5062369;28;20469;-68
2022/06/21 12:37:39;;;;;;;10.52;4.53;;;;;;;;;;5078390;28;20040;-76
2022/06/21 12:40:17;;;;;;;12.73;4.90;;;;;;;;;;5072279;28;20580;-74
2022/06/21 12:42:49;;;;;;;10.52;4.97;;;;;;;;;;5071926;28;20469;-74
2022/06/21 12:45:18;;;;;;;12.90;4.73;;;;;;;;;;5052803;28;20370;-73
2022/06/21 12:47:47;;;;;;;11.00;5.10;;;;;;;;;;5076355;28;20034;-74
2022/06/21 12:50:36;;;;;;;10.18;4.65;;;;;;;;;;5077446;28;20089;-74
2022/06/21 12:53:12;;;;;;;10.68;4.57;;;;;;;;;;5071723;28;20028;-73
2022/06/21 12:55:59;;;;;;;9.60;4.43;;;;;;;;;;5075727;28;20046;-73
2022/06/21 12:58:37;;;;;;;10.63;4.55;;;;;;;;;;5071079;28;20043;-81
2022/06/21 13:01:13;;;;;;;9.50;4.20;;;;;;;;;;5066745;28;20116;-78
2022/06/21 13:03:40;;;;;;;6.90;4.03;;;;;;;;;;5072309;28;20542;-74
2022/06/21 13:06:21;;;;;;;27.30;4.78;;;;;;;;;;5071647;28;20024;-74
2022/06/21 13:08:59;;;;;;;11.45;4.20;;;;;;;;;;5066779;28;20077;-74
2022/06/21 13:11:37;;;;;;;13.55;4.65;;;;;;;;;;5073240;28;20078;-74
2022/06/21 13:14:19;;;;;;;10.27;4.30;;;;;;;;;;5078609;28;20029;-74
2022/06/21 13:16:45;;;;;;;11.40;4.28;;;;;;;;;;5062666;28;20021;-76
2022/06/21 13:19:14;;;;;;;16.33;4.53;;;;;;;;;;5067730;28;20107;-75
2022/06/21 13:21:47;;;;;;;16.52;4.82;;;;;;;;;;5081098;28;20375;-73
2022/06/21 13:24:13;;;;;;;8.18;4.20;;;;;;;;;;5075464;28;20024;-72
2022/06/21 13:26:53;;;;;;;7.22;4.00;;;;;;;;;;5074001;28;20031;-73
2022/06/21 13:29:29;;;;;;;12.80;4.70;;;;;;;;;;5076712;28;20489;-73
2022/06/21 13:31:57;;;;;;;13.23;4.07;;;;;;;;;;5074681;28;20113;-73
2022/06/21 13:34:42;;;;;;;6.88;3.88;;;;;;;;;;5073327;28;20222;-72
2022/06/21 13:37:29;;;;;;;9.77;4.25;;;;;;;;;;5079364;28;20028;-72
2022/06/21 13:40:09;;;;;;;37.05;6.10;;;;;;;;;;5075512;28;20020;-72
2022/06/21 13:42:46;;;;;;;10.43;4.10;;;;;;;;;;5081874;28;20024;-71
2022/06/21 13:45:27;;;;;;;11.60;3.55;;;;;;;;;;5073950;28;20023;-72
2022/06/21 13:48:12;;;;;;;7.22;4.00;;;;;;;;;;5080168;28;20035;-72
2022/06/21 13:50:44;;;;;;;18.45;4.60;;;;;;;;;;5074306;28;20498;-74
2022/06/21 13:53:17;;;;;;;8.65;3.70;;;;;;;;;;5070909;28;20466;-75
2022/06/21 13:55:54;;;;;;;15.63;4.97;;;;;;;;;;5073159;28;20439;-75
2022/06/21 13:58:29;;;;;;;8.70;3.85;;;;;;;;;;5079111;28;20020;-72
2022/06/21 14:01:03;;;;;;;10.48;4.13;;;;;;;;;;5073315;28;20025;-72
2022/06/21 14:03:48;;;;;;;9.65;4.05;;;;;;;;;;5064438;28;20027;-73
2022/06/21 14:06:22;;;;;;;37.63;5.38;;;;;;;;;;5081307;28;20024;-72
2022/06/21 14:08:48;;;;;;;8.57;4.07;;;;;;;;;;5075047;28;20024;-72
2022/06/21 14:11:40;;;;;;;9.80;3.90;;;;;;;;;;5076885;28;20107;-72
2022/06/21 14:14:09;;;;;;;10.60;4.07;;;;;;;;;;5075696;28;20111;-71
2022/06/21 14:16:38;;;;;;;8.95;3.58;;;;;;;;;;5077646;28;20103;-72
2022/06/21 14:19:11;;;;;;;14.00;4.00;;;;;;;;;;5078949;28;20020;-72
2022/06/21 14:21:39;;;;;;;;;;;;;;;;;;5073103;28;20090;-72
2022/06/21 14:24:05;;;;;;;10.20;4.05;;;;;;;;;;5070926;28;19909;-71
2022/06/21 14:26:34;;;;;;;12.88;4.10;;;;;;;;;;5073609;28;20401;-72
2022/06/21 14:29:07;;;;;;;18.42;4.03;;;;;;;;;;5067878;28;20028;-70
2022/06/21 14:31:39;;;;;;;13.63;4.00;;;;;;;;;;5064828;28;20041;-72
2022/06/21 14:34:11;;;;;;;9.07;4.60;;;;;;;;;;5062174;28;20112;-71
2022/06/21 14:36:41;;;;;;;9.93;4.05;;;;;;;;;;5072462;28;20028;-72
2022/06/21 14:39:12;;;;;;;12.60;3.70;;;;;;;;;;5059950;28;20445;-71
2022/06/21 14:41:43;;;;;;;9.75;3.83;;;;;;;;;;5055526;28;20421;-71
2022/06/21 14:44:18;;;;;;;11.85;4.40;;;;;;;;;;5065239;28;20032;-71
2022/06/21 14:46:49;;;;;;;12.88;4.18;;;;;;;;;;5054631;28;20028;-71
2022/06/21 14:49:29;;;;;;;9.05;3.88;;;;;;;;;;5073198;28;20048;-71
2022/06/21 14:52:04;;;;;;;8.30;4.13;;;;;;;;;;5079283;28;20032;-76
2022/06/21 14:54:48;;;;;;;10.13;4.55;;;;;;;;;;5075907;28;21465;-75
2022/06/21 14:57:17;;;;;;;11.07;4.45;;;;;;;;;;5075309;28;20059;-80
2022/06/21 14:59:51;;;;;;;10.13;4.20;;;;;;;;;;5073723;28;20102;-77
2022/06/21 15:02:26;;;;;;;9.02;3.90;;;;;;;;;;5073546;28;20031;-75
2022/06/21 15:04:59;;;;;;;7.68;3.90;;;;;;;;;;5078939;28;20033;-74
2022/06/21 15:07:25;;;;;;;;;;;;;;;;;;5070927;28;20389;-76
2022/06/21 15:09:55;;;;;;;10.63;3.80;;;;;;;;;;5071632;28;20377;-74
2022/06/21 15:12:23;;;;;;;13.30;4.32;;;;;;;;;;5069610;28;20020;-74
2022/06/21 15:15:02;;;;;;;8.63;4.10;;;;;;;;;;5070920;28;20025;-74
2022/06/21 15:17:34;;;;;;;9.50;4.20;;;;;;;;;;5072491;28;20021;-73
2022/06/21 15:20:09;;;;;;;6.10;3.97;;;;;;;;;;5074382;28;20029;-72
2022/06/21 15:22:37;;;;;;;15.25;4.63;;;;;;;;;;5069218;28;20029;-72